createdAt,value
2023-02-15T00:00:01.732Z,102823.59
2023-02-15T00:02:41.660Z,102817.09
2023-02-15T00:05:16.224Z,102825.25
2023-02-15T00:07:51.163Z,102819.25
2023-02-15T00:10:27.779Z,102814.34
2023-02-15T00:13:02.329Z,102805.69
2023-02-15T00:15:35.303Z,102804.88
2023-02-15T00:18:16.352Z,102803.31
2023-02-15T00:20:51.076Z,102792.47
2023-02-15T00:23:24.332Z,102804.69
2023-02-15T00:26:06.091Z,102798.72
2023-02-15T00:28:42.104Z,102790.03
2023-02-15T00:31:16.529Z,102792.25
2023-02-15T00:33:49.620Z,102793.97
2023-02-15T00:36:23.778Z,102791.25
2023-02-15T00:38:56.820Z,102792.00
2023-02-15T00:41:29.945Z,102792.25
2023-02-15T00:44:07.496Z,102780.88
2023-02-15T00:46:40.980Z,102781.81
2023-02-15T00:49:15.717Z,102775.44
2023-02-15T00:51:49.904Z,102775.75
2023-02-15T00:54:27.942Z,102776.59
2023-02-15T00:57:01.044Z,102781.81
2023-02-15T00:59:34.407Z,102777.44
2023-02-15T01:02:07.768Z,102778.34
2023-02-15T01:04:42.216Z,102772.63
2023-02-15T01:07:16.861Z,102775.31
2023-02-15T01:09:51.937Z,102778.34
2023-02-15T01:12:25.073Z,102786.97
2023-02-15T01:14:58.204Z,102782.63
2023-02-15T01:17:33.508Z,102772.78
2023-02-15T01:20:08.066Z,102782.91
2023-02-15T01:22:42.491Z,102778.00
2023-02-15T01:25:15.792Z,102770.69
2023-02-15T01:27:54.206Z,102760.91
2023-02-15T01:30:27.540Z,102763.03
2023-02-15T01:33:01.791Z,102766.88
2023-02-15T01:35:39.086Z,102762.06
2023-02-15T01:38:13.864Z,102759.84
2023-02-15T01:40:47.001Z,102758.78
2023-02-15T01:43:20.445Z,102752.53
2023-02-15T01:45:53.409Z,102748.44
2023-02-15T01:48:29.334Z,102746.78
2023-02-15T01:51:04.689Z,102747.09
2023-02-15T01:53:44.404Z,102741.91
2023-02-15T01:56:21.259Z,102744.16
2023-02-15T01:59:07.372Z,102740.06
2023-02-15T02:01:41.107Z,102730.84
2023-02-15T02:04:19.513Z,102733.88
2023-02-15T02:06:56.258Z,102730.34
2023-02-15T02:09:32.390Z,102731.16
2023-02-15T02:12:06.040Z,102732.00
2023-02-15T02:14:40.954Z,102725.22
2023-02-15T02:17:20.819Z,102727.97
2023-02-15T02:20:21.910Z,102722.97
2023-02-15T02:23:32.343Z,102712.66
2023-02-15T02:26:44.341Z,102704.59
2023-02-15T02:30:00.666Z,102695.63
2023-02-15T02:33:15.676Z,102694.50
2023-02-15T02:36:03.869Z,102690.47
2023-02-15T02:38:50.658Z,102687.22
2023-02-15T02:41:34.964Z,102686.19
2023-02-15T02:44:15.824Z,102694.25
2023-02-15T02:46:55.397Z,102691.16
2023-02-15T02:49:36.983Z,102690.56
2023-02-15T02:52:39.140Z,102692.75
2023-02-15T02:55:17.893Z,102686.50
2023-02-15T02:57:56.181Z,102683.22
2023-02-15T03:00:33.872Z,102677.00
2023-02-15T03:03:11.762Z,102669.38
2023-02-15T03:05:49.600Z,102660.13
2023-02-15T03:08:29.944Z,102664.75
2023-02-15T03:11:06.450Z,102659.06
2023-02-15T03:13:39.898Z,102653.41
2023-02-15T03:16:29.853Z,102655.25
2023-02-15T03:19:07.952Z,102654.44
2023-02-15T03:21:50.435Z,102652.28
2023-02-15T03:24:27.450Z,102660.69
2023-02-15T03:27:02.033Z,102656.44
2023-02-15T03:29:37.073Z,102651.81
2023-02-15T03:32:13.521Z,102645.00
2023-02-15T03:34:47.623Z,102641.25
2023-02-15T03:37:28.540Z,102641.78
2023-02-15T03:40:23.879Z,102640.47
2023-02-15T03:43:03.835Z,102624.44
2023-02-15T03:45:55.336Z,102626.09
2023-02-15T03:48:31.832Z,102628.00
2023-02-15T03:51:27.335Z,102625.00
2023-02-15T03:54:02.460Z,102613.66
2023-02-15T03:56:38.529Z,102616.34
2023-02-15T03:59:29.112Z,102619.34
2023-02-15T04:02:16.289Z,102615.81
2023-02-15T04:04:50.701Z,102609.78
2023-02-15T04:07:23.430Z,102605.53
2023-02-15T04:10:13.926Z,102599.03
2023-02-15T04:12:48.165Z,102599.59
2023-02-15T04:15:38.681Z,102590.69
2023-02-15T04:18:11.643Z,102601.56
2023-02-15T04:21:03.223Z,102602.94
2023-02-15T04:23:53.904Z,102601.56
2023-02-15T04:26:26.737Z,102601.84
2023-02-15T04:29:00.766Z,102602.34
2023-02-15T04:31:33.837Z,102604.34
2023-02-15T04:34:06.797Z,102597.03
2023-02-15T04:36:39.719Z,102594.56
2023-02-15T04:39:15.508Z,102601.88
2023-02-15T04:41:49.239Z,102593.72
2023-02-15T04:44:23.481Z,102593.47
2023-02-15T04:46:56.339Z,102592.69
2023-02-15T04:49:29.094Z,102588.34
2023-02-15T04:52:02.421Z,102589.69
2023-02-15T04:54:35.186Z,102591.34
2023-02-15T04:57:08.481Z,102585.09
2023-02-15T04:59:42.727Z,102584.28
2023-02-15T05:02:15.617Z,102575.84
2023-02-15T05:04:48.535Z,102575.84
2023-02-15T05:07:22.261Z,102590.06
2023-02-15T05:09:55.249Z,102581.84
2023-02-15T05:12:28.399Z,102576.53
2023-02-15T05:15:02.717Z,102574.84
2023-02-15T05:17:35.631Z,102573.75
2023-02-15T05:20:08.922Z,102568.59
2023-02-15T05:22:42.430Z,102562.97
2023-02-15T05:25:32.847Z,102570.28
2023-02-15T05:28:24.228Z,102562.44
2023-02-15T05:31:06.434Z,102565.94
2023-02-15T05:33:40.160Z,102559.75
2023-02-15T05:36:13.589Z,102560.03
2023-02-15T05:38:46.511Z,102552.91
2023-02-15T05:41:19.479Z,102552.69
2023-02-15T05:43:52.472Z,102551.09
2023-02-15T05:46:26.885Z,102548.06
2023-02-15T05:48:59.813Z,102548.13
2023-02-15T05:51:32.628Z,102543.50
2023-02-15T05:54:05.620Z,102541.91
2023-02-15T05:56:38.230Z,102547.63
2023-02-15T05:59:11.046Z,102539.28
2023-02-15T06:01:45.105Z,102539.53
2023-02-15T06:04:19.163Z,102541.19
2023-02-15T06:06:51.936Z,102538.16
2023-02-15T06:09:24.883Z,102530.03
2023-02-15T06:11:57.698Z,102530.03
2023-02-15T06:14:30.587Z,102533.56
2023-02-15T06:17:04.569Z,102537.09
2023-02-15T06:19:37.393Z,102532.47
2023-02-15T06:22:10.140Z,102531.97
2023-02-15T06:24:43.773Z,102527.13
2023-02-15T06:27:16.600Z,102530.09
2023-02-15T06:29:49.324Z,102535.53
2023-02-15T06:32:23.923Z,102537.91
2023-02-15T06:34:56.735Z,102536.63
2023-02-15T06:37:29.735Z,102550.19
2023-02-15T06:40:03.882Z,102546.97
2023-02-15T06:42:36.828Z,102546.44
2023-02-15T06:45:10.821Z,102540.25
2023-02-15T06:47:45.271Z,102539.19
2023-02-15T06:50:28.910Z,102544.09
2023-02-15T06:53:02.021Z,102538.38
2023-02-15T06:55:35.091Z,102542.19
2023-02-15T06:58:08.011Z,102537.28
2023-02-15T07:00:40.609Z,102532.94
2023-02-15T07:03:17.802Z,102537.16
2023-02-15T07:05:50.974Z,102528.25
2023-02-15T07:08:23.803Z,102536.63
2023-02-15T07:11:18.500Z,102536.34
2023-02-15T07:13:50.269Z,102533.97
2023-02-15T07:16:23.214Z,102531.44
2023-02-15T07:18:57.322Z,102537.16
2023-02-15T07:21:30.057Z,102527.97
2023-02-15T07:24:03.280Z,102525.25
2023-02-15T07:26:35.978Z,102526.91
2023-02-15T07:29:08.673Z,102529.88
2023-02-15T07:31:41.325Z,102528.47
2023-02-15T07:34:15.423Z,102528.47
2023-02-15T07:36:48.207Z,102516.00
2023-02-15T07:39:21.071Z,102522.81
2023-02-15T07:41:53.778Z,102523.63
2023-02-15T07:44:26.449Z,102516.00
2023-02-15T07:46:59.174Z,102516.00
2023-02-15T07:49:33.147Z,102519.22
2023-02-15T07:52:06.349Z,102509.81
2023-02-15T07:54:39.120Z,102513.31
2023-02-15T07:57:11.784Z,102512.78
2023-02-15T07:59:44.443Z,102514.81
2023-02-15T08:02:18.468Z,102508.03
2023-02-15T08:04:52.640Z,102514.56
2023-02-15T08:07:25.404Z,102514.56
2023-02-15T08:09:58.137Z,102514.00
2023-02-15T08:12:31.051Z,102509.38
2023-02-15T08:15:03.582Z,102508.03
2023-02-15T08:17:38.221Z,102504.75
2023-02-15T08:20:12.810Z,102503.16
2023-02-15T08:22:45.528Z,102505.28
2023-02-15T08:25:18.396Z,102505.78
2023-02-15T08:27:51.660Z,102509.88
2023-02-15T08:30:24.486Z,102510.69
2023-02-15T08:32:57.046Z,102504.44
2023-02-15T08:35:31.208Z,102510.91
2023-02-15T08:38:04.008Z,102519.00
2023-02-15T08:40:38.940Z,102514.97
2023-02-15T08:43:11.618Z,102517.41
2023-02-15T08:45:44.570Z,102508.91
2023-02-15T08:48:17.389Z,102507.31
2023-02-15T08:50:51.450Z,102511.06
2023-02-15T08:53:24.240Z,102515.72
2023-02-15T08:55:58.578Z,102511.38
2023-02-15T08:58:32.699Z,102509.19
2023-02-15T09:01:11.583Z,102508.84
2023-02-15T09:03:44.582Z,102500.94
2023-02-15T09:06:19.222Z,102492.41
2023-02-15T09:08:52.336Z,102488.66
2023-02-15T09:11:27.171Z,102483.72
2023-02-15T09:14:02.552Z,102485.78
2023-02-15T09:16:37.779Z,102481.41
2023-02-15T09:19:10.653Z,102486.22
2023-02-15T09:21:44.985Z,102484.50
2023-02-15T09:24:18.983Z,102483.00
2023-02-15T09:26:51.990Z,102482.09
2023-02-15T09:29:25.377Z,102480.50
2023-02-15T09:31:58.163Z,102478.16
2023-02-15T09:34:34.047Z,102486.69
2023-02-15T09:37:09.153Z,102483.47
2023-02-15T09:39:44.921Z,102484.78
2023-02-15T09:42:56.665Z,102494.66
2023-02-15T09:45:42.445Z,102488.34
2023-02-15T09:48:31.552Z,102488.31
2023-02-15T09:51:23.496Z,102489.66
2023-02-15T09:54:12.159Z,102488.78
2023-02-15T09:56:50.275Z,102498.78
2023-02-15T09:59:32.388Z,102497.50
2023-02-15T10:02:21.151Z,102499.78
2023-02-15T10:05:04.310Z,102487.59
2023-02-15T10:07:57.443Z,102491.84
2023-02-15T10:10:42.341Z,102494.88
2023-02-15T10:13:26.846Z,102497.28
2023-02-15T10:16:10.458Z,102493.53
2023-02-15T10:18:57.606Z,102499.47
2023-02-15T10:21:44.346Z,102490.63
2023-02-15T10:24:44.653Z,102480.31
2023-02-15T10:27:22.317Z,102477.47
2023-02-15T10:30:06.835Z,102474.59
2023-02-15T10:32:50.093Z,102477.59
2023-02-15T10:35:26.780Z,102459.38
2023-02-15T10:38:13.192Z,102462.78
2023-02-15T10:40:57.444Z,102456.91
2023-02-15T10:43:46.542Z,102453.38
2023-02-15T10:46:35.331Z,102454.66
2023-02-15T10:49:20.527Z,102451.91
2023-02-15T10:52:05.546Z,102455.97
2023-02-15T10:54:46.293Z,102458.00
2023-02-15T10:57:28.022Z,102471.84
2023-02-15T11:00:15.473Z,102475.47
2023-02-15T11:03:00.451Z,102469.22
2023-02-15T11:05:44.835Z,102466.53
2023-02-15T11:08:18.505Z,102462.19
2023-02-15T11:10:55.698Z,102460.47
2023-02-15T11:13:34.814Z,102456.44
2023-02-15T11:16:18.278Z,102451.31
2023-02-15T11:18:56.505Z,102456.97
2023-02-15T11:21:37.765Z,102447.50
2023-02-15T11:24:13.682Z,102446.75
2023-02-15T11:26:50.683Z,102439.84
2023-02-15T11:29:30.294Z,102445.47
2023-02-15T11:32:16.005Z,102438.88
2023-02-15T11:34:54.260Z,102446.13
2023-02-15T11:37:33.494Z,102441.94
2023-02-15T11:40:20.849Z,102445.97
2023-02-15T11:42:57.974Z,102445.63
2023-02-15T11:45:32.469Z,102453.69
2023-02-15T11:48:12.560Z,102450.78
2023-02-15T11:50:46.642Z,102447.75
2023-02-15T11:53:22.564Z,102446.75
2023-02-15T11:55:57.079Z,102445.91
2023-02-15T11:58:38.655Z,102439.75
2023-02-15T12:01:17.013Z,102438.91
2023-02-15T12:03:53.489Z,102432.72
2023-02-15T12:06:29.369Z,102430.44
2023-02-15T12:09:07.489Z,102426.19
2023-02-15T12:11:42.519Z,102426.34
2023-02-15T12:14:17.467Z,102424.38
2023-02-15T12:16:53.583Z,102425.47
2023-02-15T12:19:33.104Z,102424.94
2023-02-15T12:22:10.154Z,102414.38
2023-02-15T12:24:48.353Z,102415.84
2023-02-15T12:27:24.185Z,102420.00
2023-02-15T12:30:00.924Z,102409.78
2023-02-15T12:32:37.900Z,102407.47
2023-02-15T12:35:18.810Z,102407.28
2023-02-15T12:37:57.760Z,102406.06
2023-02-15T12:40:31.831Z,102402.19
2023-02-15T12:43:09.708Z,102403.13
2023-02-15T12:45:42.556Z,102407.03
2023-02-15T12:48:19.209Z,102400.78
2023-02-15T12:50:56.343Z,102405.81
2023-02-15T12:53:34.887Z,102397.38
2023-02-15T12:56:09.443Z,102406.53
2023-02-15T12:58:43.635Z,102407.94
2023-02-15T13:01:18.375Z,102401.19
2023-02-15T13:04:02.320Z,102395.69
2023-02-15T13:06:38.561Z,102394.19
2023-02-15T13:09:17.975Z,102386.44
2023-02-15T13:11:51.166Z,102386.22
2023-02-15T13:14:32.471Z,102380.72
2023-02-15T13:17:08.770Z,102379.13
2023-02-15T13:19:44.188Z,102372.56
2023-02-15T13:22:22.114Z,102369.22
2023-02-15T13:24:59.524Z,102370.81
2023-02-15T13:27:39.264Z,102363.06
2023-02-15T13:30:27.048Z,102367.22
2023-02-15T13:33:04.022Z,102364.94
2023-02-15T13:35:43.668Z,102363.31
2023-02-15T13:38:44.477Z,102360.09
2023-02-15T13:41:20.178Z,102361.13
2023-02-15T13:44:00.662Z,102352.50
2023-02-15T13:46:50.311Z,102354.09
2023-02-15T13:49:35.211Z,102346.78
2023-02-15T13:52:19.425Z,102343.78
2023-02-15T13:55:17.222Z,102340.78
2023-02-15T13:58:06.204Z,102345.13
2023-02-15T14:00:51.709Z,102342.81
2023-02-15T14:03:45.174Z,102333.06
2023-02-15T14:06:34.630Z,102341.16
2023-02-15T14:09:18.926Z,102339.09
2023-02-15T14:12:04.534Z,102340.91
2023-02-15T14:15:02.160Z,102338.34
2023-02-15T14:17:50.115Z,102349.31
2023-02-15T14:20:27.903Z,102340.16
2023-02-15T14:23:33.403Z,102336.00
2023-02-15T14:26:17.438Z,102340.09
2023-02-15T14:29:08.873Z,102342.19
2023-02-15T14:31:54.595Z,102343.28
2023-02-15T14:34:33.357Z,102343.03
2023-02-15T14:37:06.754Z,102341.41
2023-02-15T14:40:06.371Z,102329.78
2023-02-15T14:42:46.417Z,102334.31
2023-02-15T14:45:30.307Z,102336.41
2023-02-15T14:48:13.874Z,102332.03
2023-02-15T14:50:48.513Z,102336.59
2023-02-15T14:53:39.517Z,102333.53
2023-02-15T14:56:26.858Z,102327.72
2023-02-15T14:59:19.881Z,102324.19
2023-02-15T15:01:59.520Z,102314.78
2023-02-15T15:04:35.997Z,102319.19
2023-02-15T15:07:21.167Z,102319.84
2023-02-15T15:10:04.293Z,102315.50
2023-02-15T15:12:41.288Z,102319.50
2023-02-15T15:15:16.313Z,102325.34
2023-02-15T15:18:01.408Z,102319.38
2023-02-15T15:20:46.992Z,102320.16
2023-02-15T15:23:46.167Z,102318.56
2023-02-15T15:26:34.342Z,102314.50
2023-02-15T15:29:08.558Z,102316.31
2023-02-15T15:31:49.801Z,102314.00
2023-02-15T15:35:06.366Z,102308.88
2023-02-15T15:37:59.025Z,102311.34
2023-02-15T15:41:01.176Z,102299.69
2023-02-15T15:44:10.936Z,102298.44
2023-02-15T15:47:22.200Z,102297.09
2023-02-15T15:49:58.170Z,102292.63
2023-02-15T15:52:38.658Z,102284.38
2023-02-15T15:55:18.315Z,102290.41
2023-02-15T15:57:53.366Z,102279.31
2023-02-15T16:00:37.577Z,102282.50
2023-02-15T16:03:16.382Z,102288.59
2023-02-15T16:05:49.368Z,102283.19
2023-02-15T16:08:29.856Z,102271.63
2023-02-15T16:11:10.650Z,102278.09
2023-02-15T16:13:44.631Z,102284.09
2023-02-15T16:16:23.828Z,102284.25
2023-02-15T16:19:00.404Z,102273.28
2023-02-15T16:21:36.237Z,102273.50
2023-02-15T16:24:39.180Z,102273.69
2023-02-15T16:27:33.325Z,102266.56
2023-02-15T16:30:25.144Z,102277.13
2023-02-15T16:33:06.769Z,102279.66
2023-02-15T16:35:41.731Z,102278.59
2023-02-15T16:38:14.821Z,102272.16
2023-02-15T16:40:58.215Z,102278.16
2023-02-15T16:43:34.197Z,102277.06
2023-02-15T16:46:09.318Z,102277.72
2023-02-15T16:48:45.545Z,102283.84
2023-02-15T16:51:23.487Z,102284.66
2023-02-15T16:53:58.608Z,102294.81
2023-02-15T16:56:34.038Z,102294.81
2023-02-15T16:59:07.268Z,102290.00
2023-02-15T17:01:40.364Z,102290.63
2023-02-15T17:04:15.514Z,102295.63
2023-02-15T17:07:02.709Z,102295.97
2023-02-15T17:09:50.455Z,102303.72
2023-02-15T17:12:51.664Z,102300.19
2023-02-15T17:15:29.591Z,102298.38
2023-02-15T17:18:07.108Z,102308.41
2023-02-15T17:20:44.781Z,102296.47
2023-02-15T17:23:30.720Z,102300.81
2023-02-15T17:26:16.406Z,102301.81
2023-02-15T17:28:53.468Z,102297.59
2023-02-15T17:31:29.493Z,102304.56
2023-02-15T17:34:03.464Z,102302.13
2023-02-15T17:36:36.396Z,102308.72
2023-02-15T17:39:21.249Z,102310.53
2023-02-15T17:41:54.200Z,102313.41
2023-02-15T17:44:28.626Z,102310.03
2023-02-15T17:47:01.371Z,102313.47
2023-02-15T17:49:35.467Z,102308.44
2023-02-15T17:52:12.203Z,102306.19
2023-02-15T17:55:02.803Z,102308.44
2023-02-15T17:57:36.401Z,102319.03
2023-02-15T18:00:33.765Z,102318.09
2023-02-15T18:03:24.405Z,102318.59
2023-02-15T18:06:16.655Z,102320.22
2023-02-15T18:09:06.869Z,102318.13
2023-02-15T18:11:39.915Z,102319.13
2023-02-15T18:14:12.858Z,102315.91
2023-02-15T18:16:47.145Z,102314.09
2023-02-15T18:19:25.118Z,102315.25
2023-02-15T18:21:58.161Z,102316.38
2023-02-15T18:24:30.985Z,102318.31
2023-02-15T18:27:06.984Z,102311.72
2023-02-15T18:29:43.337Z,102312.53
2023-02-15T18:32:21.007Z,102312.38
2023-02-15T18:34:59.318Z,102323.16
2023-02-15T18:37:34.325Z,102320.75
2023-02-15T18:40:16.554Z,102320.25
2023-02-15T18:42:52.424Z,102325.56
2023-02-15T18:45:28.704Z,102322.34
2023-02-15T18:48:10.073Z,102319.63
2023-02-15T18:50:46.017Z,102319.78
2023-02-15T18:53:22.433Z,102322.03
2023-02-15T18:55:57.906Z,102309.47
2023-02-15T18:58:33.689Z,102313.31
2023-02-15T19:01:17.902Z,102313.00
2023-02-15T19:03:55.029Z,102318.63
2023-02-15T19:06:34.414Z,102303.47
2023-02-15T19:09:13.987Z,102309.59
2023-02-15T19:11:54.092Z,102314.13
2023-02-15T19:14:30.272Z,102315.09
2023-02-15T19:17:15.293Z,102312.69
2023-02-15T19:19:54.833Z,102313.81
2023-02-15T19:22:32.762Z,102312.84
2023-02-15T19:25:19.977Z,102317.16
2023-02-15T19:27:56.667Z,102311.38
2023-02-15T19:30:32.993Z,102309.13
2023-02-15T19:33:17.063Z,102302.53
2023-02-15T19:35:57.345Z,102303.97
2023-02-15T19:38:37.389Z,102297.03
2023-02-15T19:41:19.838Z,102298.50
2023-02-15T19:43:55.936Z,102291.44
2023-02-15T19:46:29.465Z,102303.97
2023-02-15T19:49:02.627Z,102302.03
2023-02-15T19:51:37.159Z,102302.66
2023-02-15T19:54:21.277Z,102296.25
2023-02-15T19:56:57.214Z,102296.44
2023-02-15T19:59:35.438Z,102301.38
2023-02-15T20:02:15.619Z,102300.75
2023-02-15T20:04:48.817Z,102297.38
2023-02-15T20:07:32.405Z,102297.38
2023-02-15T20:10:14.722Z,102294.97
2023-02-15T20:12:48.249Z,102296.41
2023-02-15T20:15:24.334Z,102298.50
2023-02-15T20:18:02.150Z,102293.97
2023-02-15T20:20:41.639Z,102299.44
2023-02-15T20:23:23.879Z,102295.25
2023-02-15T20:26:02.448Z,102302.50
2023-02-15T20:28:35.532Z,102304.22
2023-02-15T20:31:17.800Z,102297.31
2023-02-15T20:33:53.029Z,102292.31
2023-02-15T20:36:27.522Z,102296.03
2023-02-15T20:39:13.502Z,102294.41
2023-02-15T20:41:49.927Z,102297.78
2023-02-15T20:44:27.628Z,102287.97
2023-02-15T20:47:03.191Z,102289.44
2023-02-15T20:49:38.470Z,102286.38
2023-02-15T20:52:20.012Z,102289.09
2023-02-15T20:54:54.575Z,102297.44
2023-02-15T20:57:27.712Z,102298.91
2023-02-15T21:00:04.157Z,102304.69
2023-02-15T21:02:39.080Z,102297.28
2023-02-15T21:05:22.062Z,102285.81
2023-02-15T21:07:55.912Z,102297.72
2023-02-15T21:10:33.010Z,102297.38
2023-02-15T21:13:06.416Z,102295.13
2023-02-15T21:15:44.563Z,102295.94
2023-02-15T21:18:20.196Z,102296.44
2023-02-15T21:20:57.807Z,102289.84
2023-02-15T21:23:35.481Z,102298.50
2023-02-15T21:26:19.428Z,102295.13
2023-02-15T21:28:57.388Z,102291.25
2023-02-15T21:31:30.576Z,102291.28
2023-02-15T21:34:04.464Z,102293.41
2023-02-15T21:36:39.680Z,102281.66
2023-02-15T21:39:17.657Z,102276.53
2023-02-15T21:42:12.051Z,102276.69
2023-02-15T21:45:02.509Z,102282.94
2023-02-15T21:47:53.682Z,102285.75
2023-02-15T21:50:45.022Z,102285.16
2023-02-15T21:53:23.353Z,102289.31
2023-02-15T21:55:58.044Z,102289.63
2023-02-15T21:58:34.191Z,102283.88
2023-02-15T22:01:08.108Z,102283.25
2023-02-15T22:03:42.379Z,102283.72
2023-02-15T22:06:15.352Z,102282.06
2023-02-15T22:08:48.860Z,102286.75
2023-02-15T22:11:23.110Z,102274.38
2023-02-15T22:13:58.551Z,102285.34
2023-02-15T22:16:31.530Z,102276.09
2023-02-15T22:19:04.916Z,102277.09
2023-02-15T22:21:37.717Z,102274.56
2023-02-15T22:24:10.532Z,102269.38
2023-02-15T22:26:43.349Z,102284.94
2023-02-15T22:29:19.362Z,102287.25
2023-02-15T22:31:52.495Z,102285.16
2023-02-15T22:34:28.293Z,102285.75
2023-02-15T22:37:01.397Z,102290.63
2023-02-15T22:39:34.424Z,102287.88
2023-02-15T22:42:18.254Z,102299.41
2023-02-15T22:44:55.112Z,102289.25
2023-02-15T22:47:32.244Z,102294.94
2023-02-15T22:50:18.378Z,102283.00
2023-02-15T22:52:53.297Z,102279.00
2023-02-15T22:55:28.952Z,102286.09
2023-02-15T22:58:02.350Z,102289.50
2023-02-15T23:00:40.356Z,102286.41
2023-02-15T23:03:18.972Z,102287.91
2023-02-15T23:05:52.868Z,102292.94
2023-02-15T23:08:26.038Z,102290.25
2023-02-15T23:10:58.848Z,102282.06
2023-02-15T23:13:33.333Z,102278.66
2023-02-15T23:16:09.653Z,102283.28
2023-02-15T23:18:44.612Z,102285.81
2023-02-15T23:21:21.970Z,102287.56
2023-02-15T23:23:56.814Z,102281.19
2023-02-15T23:26:32.114Z,102276.75
2023-02-15T23:29:07.557Z,102281.41
2023-02-15T23:31:45.087Z,102286.69
2023-02-15T23:34:21.293Z,102277.19
2023-02-15T23:36:54.107Z,102275.75
2023-02-15T23:39:46.798Z,102275.38
2023-02-15T23:42:22.295Z,102282.44
2023-02-15T23:44:55.749Z,102276.88
2023-02-15T23:47:46.383Z,102280.03
2023-02-15T23:50:21.468Z,102281.50
2023-02-15T23:52:55.547Z,102281.38
2023-02-15T23:55:38.143Z,102273.63
2023-02-15T23:58:16.244Z,102282.78
